sensor_id;sensor_type;location;lat;lon;timestamp;P1;durP1;ratioP1;P2;durP2;ratioP2
62110;SDS011;48102;47.526;19.072;2022-12-07T04:35:55;8.05;;;7.18;;
62110;SDS011;48102;47.526;19.072;2022-12-07T04:38:58;6.18;;;4.65;;
62110;SDS011;48102;47.526;19.072;2022-12-07T04:42:01;5.72;;;5.12;;
62110;SDS011;48102;47.526;19.072;2022-12-07T04:45:05;5.45;;;4.72;;
62110;SDS011;48102;47.526;19.072;2022-12-07T04:48:08;4.15;;;3.37;;
62110;SDS011;48102;47.526;19.072;2022-12-07T04:51:14;5.85;;;4.47;;
62110;SDS011;48102;47.526;19.072;2022-12-07T04:54:20;3.90;;;3.50;;
62110;SDS011;48102;47.526;19.072;2022-12-07T05:00:26;4.85;;;4.03;;
62110;SDS011;48102;47.526;19.072;2022-12-07T05:03:29;12.37;;;3.10;;
62110;SDS011;48102;47.526;19.072;2022-12-07T05:06:31;5.85;;;4.20;;
62110;SDS011;48102;47.526;19.072;2022-12-07T05:09:34;4.35;;;3.35;;
62110;SDS011;48102;47.526;19.072;2022-12-07T05:12:37;2.12;;;1.85;;
62110;SDS011;48102;47.526;19.072;2022-12-07T05:15:39;1.95;;;1.85;;
62110;SDS011;48102;47.526;19.072;2022-12-07T05:18:42;5.70;;;1.60;;
62110;SDS011;48102;47.526;19.072;2022-12-07T05:21:45;2.20;;;1.90;;
62110;SDS011;48102;47.526;19.072;2022-12-07T05:24:48;4.97;;;2.12;;
62110;SDS011;48102;47.526;19.072;2022-12-07T05:30:53;1.62;;;1.52;;
62110;SDS011;48102;47.526;19.072;2022-12-07T05:34:01;3.15;;;2.12;;
62110;SDS011;48102;47.526;19.072;2022-12-07T05:37:03;7.55;;;2.70;;
62110;SDS011;48102;47.526;19.072;2022-12-07T05:40:06;2.28;;;1.50;;
62110;SDS011;48102;47.526;19.072;2022-12-07T05:46:12;1.80;;;1.25;;
62110;SDS011;48102;47.526;19.072;2022-12-07T05:49:15;2.67;;;1.80;;
62110;SDS011;48102;47.526;19.072;2022-12-07T05:52:18;1.83;;;1.73;;
62110;SDS011;48102;47.526;19.072;2022-12-07T05:55:20;2.67;;;1.75;;
62110;SDS011;48102;47.526;19.072;2022-12-07T05:58:23;1.60;;;1.48;;
62110;SDS011;48102;47.526;19.072;2022-12-07T06:01:45;3.00;;;1.60;;
62110;SDS011;48102;47.526;19.072;2022-12-07T06:04:47;2.37;;;1.92;;
62110;SDS011;48102;47.526;19.072;2022-12-07T06:07:50;2.10;;;1.70;;
62110;SDS011;48102;47.526;19.072;2022-12-07T06:10:53;3.20;;;1.60;;
62110;SDS011;48102;47.526;19.072;2022-12-07T06:14:16;1.80;;;1.70;;
62110;SDS011;48102;47.526;19.072;2022-12-07T06:17:19;2.50;;;2.30;;
62110;SDS011;48102;47.526;19.072;2022-12-07T06:20:21;1.80;;;1.52;;
62110;SDS011;48102;47.526;19.072;2022-12-07T06:23:24;2.67;;;1.50;;
62110;SDS011;48102;47.526;19.072;2022-12-07T06:26:27;3.97;;;1.95;;
62110;SDS011;48102;47.526;19.072;2022-12-07T06:29:30;2.35;;;2.15;;
62110;SDS011;48102;47.526;19.072;2022-12-07T06:35:36;3.22;;;2.42;;
62110;SDS011;48102;47.526;19.072;2022-12-07T06:38:38;3.50;;;1.62;;
62110;SDS011;48102;47.526;19.072;2022-12-07T06:41:42;2.08;;;1.80;;
62110;SDS011;48102;47.526;19.072;2022-12-07T06:44:44;4.32;;;2.42;;
62110;SDS011;48102;47.526;19.072;2022-12-07T06:47:47;2.20;;;2.00;;
62110;SDS011;48102;47.526;19.072;2022-12-07T06:50:50;2.35;;;1.95;;
62110;SDS011;48102;47.526;19.072;2022-12-07T06:53:56;4.10;;;2.15;;
62110;SDS011;48102;47.526;19.072;2022-12-07T06:56:59;2.28;;;2.08;;
62110;SDS011;48102;47.526;19.072;2022-12-07T07:00:02;3.78;;;3.20;;
62110;SDS011;48102;47.526;19.072;2022-12-07T07:03:06;2.55;;;2.35;;
62110;SDS011;48102;47.526;19.072;2022-12-07T07:06:09;4.05;;;2.35;;
62110;SDS011;48102;47.526;19.072;2022-12-07T07:09:12;2.70;;;2.25;;
62110;SDS011;48102;47.526;19.072;2022-12-07T07:12:15;5.00;;;3.30;;
62110;SDS011;48102;47.526;19.072;2022-12-07T07:15:19;5.75;;;3.25;;
62110;SDS011;48102;47.526;19.072;2022-12-07T07:18:22;4.80;;;4.30;;
62110;SDS011;48102;47.526;19.072;2022-12-07T07:21:26;7.07;;;4.07;;
62110;SDS011;48102;47.526;19.072;2022-12-07T07:24:29;4.85;;;3.80;;
62110;SDS011;48102;47.526;19.072;2022-12-07T07:27:31;5.62;;;3.67;;
62110;SDS011;48102;47.526;19.072;2022-12-07T07:30:34;5.60;;;4.03;;
62110;SDS011;48102;47.526;19.072;2022-12-07T07:33:37;5.35;;;3.53;;
62110;SDS011;48102;47.526;19.072;2022-12-07T07:36:40;5.37;;;4.18;;
62110;SDS011;48102;47.526;19.072;2022-12-07T07:39:42;4.50;;;2.97;;
62110;SDS011;48102;47.526;19.072;2022-12-07T07:42:49;4.35;;;3.08;;
62110;SDS011;48102;47.526;19.072;2022-12-07T07:45:52;3.95;;;3.47;;
62110;SDS011;48102;47.526;19.072;2022-12-07T07:48:55;4.22;;;3.40;;
62110;SDS011;48102;47.526;19.072;2022-12-07T07:51:58;5.20;;;4.40;;
62110;SDS011;48102;47.526;19.072;2022-12-07T07:55:01;4.47;;;3.58;;
62110;SDS011;48102;47.526;19.072;2022-12-07T07:58:03;8.68;;;5.93;;
62110;SDS011;48102;47.526;19.072;2022-12-07T08:01:07;5.07;;;3.87;;
62110;SDS011;48102;47.526;19.072;2022-12-07T08:04:10;7.85;;;5.78;;
62110;SDS011;48102;47.526;19.072;2022-12-07T08:07:13;5.10;;;3.85;;
62110;SDS011;48102;47.526;19.072;2022-12-07T08:10:17;7.65;;;5.68;;
62110;SDS011;48102;47.526;19.072;2022-12-07T08:13:20;7.85;;;4.32;;
62110;SDS011;48102;47.526;19.072;2022-12-07T08:16:30;6.35;;;5.10;;
62110;SDS011;48102;47.526;19.072;2022-12-07T08:19:32;7.45;;;6.68;;
62110;SDS011;48102;47.526;19.072;2022-12-07T08:25:38;11.48;;;7.87;;
62110;SDS011;48102;47.526;19.072;2022-12-07T08:28:42;17.08;;;7.97;;
62110;SDS011;48102;47.526;19.072;2022-12-07T08:31:45;10.73;;;6.72;;
62110;SDS011;48102;47.526;19.072;2022-12-07T08:34:48;8.73;;;7.55;;
62110;SDS011;48102;47.526;19.072;2022-12-07T08:37:52;9.40;;;7.15;;
62110;SDS011;48102;47.526;19.072;2022-12-07T08:40:58;7.93;;;7.12;;
62110;SDS011;48102;47.526;19.072;2022-12-07T08:44:01;8.02;;;6.50;;
62110;SDS011;48102;47.526;19.072;2022-12-07T08:47:04;8.88;;;7.35;;
62110;SDS011;48102;47.526;19.072;2022-12-07T08:50:09;9.43;;;7.28;;
62110;SDS011;48102;47.526;19.072;2022-12-07T08:53:13;5.22;;;4.32;;
62110;SDS011;48102;47.526;19.072;2022-12-07T08:56:16;5.47;;;4.90;;
62110;SDS011;48102;47.526;19.072;2022-12-07T08:59:19;5.25;;;3.90;;
62110;SDS011;48102;47.526;19.072;2022-12-07T09:02:23;6.95;;;4.55;;
62110;SDS011;48102;47.526;19.072;2022-12-07T09:05:25;6.10;;;4.03;;
62110;SDS011;48102;47.526;19.072;2022-12-07T09:08:36;3.92;;;3.40;;
62110;SDS011;48102;47.526;19.072;2022-12-07T09:11:44;3.33;;;2.92;;
62110;SDS011;48102;47.526;19.072;2022-12-07T09:14:47;4.15;;;3.30;;
62110;SDS011;48102;47.526;19.072;2022-12-07T09:17:50;6.07;;;3.42;;
62110;SDS011;48102;47.526;19.072;2022-12-07T09:20:53;3.60;;;2.85;;
62110;SDS011;48102;47.526;19.072;2022-12-07T09:23:56;3.70;;;2.75;;
62110;SDS011;48102;47.526;19.072;2022-12-07T09:27:00;5.10;;;4.10;;
62110;SDS011;48102;47.526;19.072;2022-12-07T09:30:04;4.18;;;2.97;;
62110;SDS011;48102;47.526;19.072;2022-12-07T09:33:07;4.20;;;2.92;;
62110;SDS011;48102;47.526;19.072;2022-12-07T09:36:10;3.95;;;3.17;;
62110;SDS011;48102;47.526;19.072;2022-12-07T09:39:13;5.35;;;3.35;;
62110;SDS011;48102;47.526;19.072;2022-12-07T09:42:29;3.40;;;2.78;;
62110;SDS011;48102;47.526;19.072;2022-12-07T09:45:36;3.20;;;2.87;;
62110;SDS011;48102;47.526;19.072;2022-12-07T09:48:39;4.85;;;3.60;;
62110;SDS011;48102;47.526;19.072;2022-12-07T09:51:45;3.72;;;3.33;;
62110;SDS011;48102;47.526;19.072;2022-12-07T09:54:48;3.78;;;3.28;;
62110;SDS011;48102;47.526;19.072;2022-12-07T09:57:52;3.40;;;3.10;;
62110;SDS011;48102;47.526;19.072;2022-12-07T10:00:56;3.42;;;2.72;;
62110;SDS011;48102;47.526;19.072;2022-12-07T10:04:09;3.30;;;2.67;;
62110;SDS011;48102;47.526;19.072;2022-12-07T10:07:19;3.50;;;2.60;;
62110;SDS011;48102;47.526;19.072;2022-12-07T10:10:26;4.60;;;2.92;;
62110;SDS011;48102;47.526;19.072;2022-12-07T10:13:37;4.55;;;3.03;;
62110;SDS011;48102;47.526;19.072;2022-12-07T10:16:42;3.50;;;2.87;;
62110;SDS011;48102;47.526;19.072;2022-12-07T10:19:45;6.03;;;3.10;;
62110;SDS011;48102;47.526;19.072;2022-12-07T10:25:58;3.50;;;2.50;;
62110;SDS011;48102;47.526;19.072;2022-12-07T10:29:03;2.35;;;2.08;;
62110;SDS011;48102;47.526;19.072;2022-12-07T10:35:22;4.00;;;2.92;;
62110;SDS011;48102;47.526;19.072;2022-12-07T10:38:31;2.75;;;2.28;;
62110;SDS011;48102;47.526;19.072;2022-12-07T10:44:37;2.47;;;1.87;;
62110;SDS011;48102;47.526;19.072;2022-12-07T10:51:09;2.78;;;2.40;;
62110;SDS011;48102;47.526;19.072;2022-12-07T11:24:03;2.97;;;2.67;;
62110;SDS011;48102;47.526;19.072;2022-12-07T11:27:19;3.17;;;1.98;;
62110;SDS011;48102;47.526;19.072;2022-12-07T11:30:32;2.30;;;2.00;;
62110;SDS011;48102;47.526;19.072;2022-12-07T11:33:55;3.90;;;2.42;;
62110;SDS011;48102;47.526;19.072;2022-12-07T11:37:02;4.87;;;3.00;;
62110;SDS011;48102;47.526;19.072;2022-12-07T11:40:25;3.58;;;2.33;;
62110;SDS011;48102;47.526;19.072;2022-12-07T11:43:32;3.30;;;2.62;;
62110;SDS011;48102;47.526;19.072;2022-12-07T11:53:41;3.80;;;2.53;;
62110;SDS011;48102;47.526;19.072;2022-12-07T11:56:54;7.22;;;3.05;;
62110;SDS011;48102;47.526;19.072;2022-12-07T12:00:04;6.55;;;2.20;;
62110;SDS011;48102;47.526;19.072;2022-12-07T12:03:15;2.95;;;2.62;;
62110;SDS011;48102;47.526;19.072;2022-12-07T12:06:34;4.40;;;2.60;;
62110;SDS011;48102;47.526;19.072;2022-12-07T12:10:45;3.35;;;2.10;;
62110;SDS011;48102;47.526;19.072;2022-12-07T12:17:25;2.47;;;1.80;;
62110;SDS011;48102;47.526;19.072;2022-12-07T12:20:53;2.75;;;2.22;;
62110;SDS011;48102;47.526;19.072;2022-12-07T12:24:05;2.58;;;1.87;;
62110;SDS011;48102;47.526;19.072;2022-12-07T12:27:19;2.72;;;2.05;;
62110;SDS011;48102;47.526;19.072;2022-12-07T12:30:30;4.00;;;2.55;;
62110;SDS011;48102;47.526;19.072;2022-12-07T12:33:36;3.03;;;2.50;;
62110;SDS011;48102;47.526;19.072;2022-12-07T12:40:01;2.85;;;2.17;;
62110;SDS011;48102;47.526;19.072;2022-12-07T12:43:46;3.70;;;3.25;;
62110;SDS011;48102;47.526;19.072;2022-12-07T12:46:58;2.53;;;1.77;;
62110;SDS011;48102;47.526;19.072;2022-12-07T12:50:36;2.85;;;1.80;;
62110;SDS011;48102;47.526;19.072;2022-12-07T12:53:37;3.70;;;2.40;;
62110;SDS011;48102;47.526;19.072;2022-12-07T12:56:43;3.87;;;2.25;;
62110;SDS011;48102;47.526;19.072;2022-12-07T13:02:56;2.67;;;2.05;;
62110;SDS011;48102;47.526;19.072;2022-12-07T13:09:32;2.42;;;2.12;;
62110;SDS011;48102;47.526;19.072;2022-12-07T13:12:36;8.05;;;2.08;;
62110;SDS011;48102;47.526;19.072;2022-12-07T13:15:47;2.15;;;1.95;;
62110;SDS011;48102;47.526;19.072;2022-12-07T13:18:57;3.30;;;2.37;;
62110;SDS011;48102;47.526;19.072;2022-12-07T13:22:00;3.25;;;1.77;;
62110;SDS011;48102;47.526;19.072;2022-12-07T13:28:16;2.67;;;1.95;;
62110;SDS011;48102;47.526;19.072;2022-12-07T13:31:28;4.20;;;2.45;;
62110;SDS011;48102;47.526;19.072;2022-12-07T13:34:46;3.17;;;2.35;;
62110;SDS011;48102;47.526;19.072;2022-12-07T13:37:49;3.85;;;2.42;;
62110;SDS011;48102;47.526;19.072;2022-12-07T13:41:12;4.80;;;2.58;;
62110;SDS011;48102;47.526;19.072;2022-12-07T13:44:17;3.55;;;2.65;;
62110;SDS011;48102;47.526;19.072;2022-12-07T13:47:38;3.90;;;2.67;;
62110;SDS011;48102;47.526;19.072;2022-12-07T13:50:54;4.78;;;2.12;;
62110;SDS011;48102;47.526;19.072;2022-12-07T13:54:00;2.75;;;2.17;;
62110;SDS011;48102;47.526;19.072;2022-12-07T13:57:11;2.70;;;2.42;;
62110;SDS011;48102;47.526;19.072;2022-12-07T14:00:24;3.10;;;2.20;;
62110;SDS011;48102;47.526;19.072;2022-12-07T14:03:31;3.53;;;2.42;;
62110;SDS011;48102;47.526;19.072;2022-12-07T14:06:35;4.18;;;2.95;;
62110;SDS011;48102;47.526;19.072;2022-12-07T14:09:38;2.80;;;2.50;;
62110;SDS011;48102;47.526;19.072;2022-12-07T14:12:41;3.42;;;2.65;;
62110;SDS011;48102;47.526;19.072;2022-12-07T14:15:45;4.53;;;2.83;;
62110;SDS011;48102;47.526;19.072;2022-12-07T14:18:53;3.62;;;2.55;;
62110;SDS011;48102;47.526;19.072;2022-12-07T14:22:15;3.87;;;2.97;;
62110;SDS011;48102;47.526;19.072;2022-12-07T14:25:25;4.55;;;2.97;;
62110;SDS011;48102;47.526;19.072;2022-12-07T14:28:30;4.07;;;2.87;;
62110;SDS011;48102;47.526;19.072;2022-12-07T14:31:35;4.20;;;2.37;;
62110;SDS011;48102;47.526;19.072;2022-12-07T14:34:37;11.82;;;2.95;;
62110;SDS011;48102;47.526;19.072;2022-12-07T14:37:41;3.72;;;2.58;;
62110;SDS011;48102;47.526;19.072;2022-12-07T14:40:46;4.15;;;3.03;;
62110;SDS011;48102;47.526;19.072;2022-12-07T14:43:48;3.35;;;2.67;;
62110;SDS011;48102;47.526;19.072;2022-12-07T14:47:11;3.67;;;2.78;;
62110;SDS011;48102;47.526;19.072;2022-12-07T14:50:35;5.10;;;3.20;;
62110;SDS011;48102;47.526;19.072;2022-12-07T14:53:42;3.47;;;3.08;;
62110;SDS011;48102;47.526;19.072;2022-12-07T14:56:54;5.15;;;2.60;;
62110;SDS011;48102;47.526;19.072;2022-12-07T15:03:00;3.45;;;2.15;;
62110;SDS011;48102;47.526;19.072;2022-12-07T15:06:03;4.78;;;3.12;;
62110;SDS011;48102;47.526;19.072;2022-12-07T15:09:08;2.62;;;2.40;;
62110;SDS011;48102;47.526;19.072;2022-12-07T15:12:11;4.05;;;2.80;;
62110;SDS011;48102;47.526;19.072;2022-12-07T15:15:16;5.93;;;2.50;;
62110;SDS011;48102;47.526;19.072;2022-12-07T15:18:19;5.57;;;3.70;;
62110;SDS011;48102;47.526;19.072;2022-12-07T15:21:24;4.03;;;2.80;;
62110;SDS011;48102;47.526;19.072;2022-12-07T15:24:26;5.12;;;3.87;;
62110;SDS011;48102;47.526;19.072;2022-12-07T15:27:29;3.75;;;2.60;;
62110;SDS011;48102;47.526;19.072;2022-12-07T15:33:35;3.40;;;2.60;;
62110;SDS011;48102;47.526;19.072;2022-12-07T15:36:38;4.03;;;2.45;;
62110;SDS011;48102;47.526;19.072;2022-12-07T15:39:40;6.80;;;2.70;;
62110;SDS011;48102;47.526;19.072;2022-12-07T15:42:43;3.60;;;2.65;;
62110;SDS011;48102;47.526;19.072;2022-12-07T15:45:49;3.90;;;2.58;;
62110;SDS011;48102;47.526;19.072;2022-12-07T15:48:52;4.25;;;3.25;;
62110;SDS011;48102;47.526;19.072;2022-12-07T15:51:55;3.67;;;3.00;;
62110;SDS011;48102;47.526;19.072;2022-12-07T15:54:57;2.80;;;2.22;;
62110;SDS011;48102;47.526;19.072;2022-12-07T15:58:02;3.37;;;2.65;;
62110;SDS011;48102;47.526;19.072;2022-12-07T16:01:23;3.28;;;2.97;;
62110;SDS011;48102;47.526;19.072;2022-12-07T16:04:27;5.05;;;3.30;;
62110;SDS011;48102;47.526;19.072;2022-12-07T16:07:31;4.00;;;3.00;;
62110;SDS011;48102;47.526;19.072;2022-12-07T16:10:34;3.17;;;2.87;;
62110;SDS011;48102;47.526;19.072;2022-12-07T16:13:37;3.42;;;2.78;;
62110;SDS011;48102;47.526;19.072;2022-12-07T16:16:39;5.12;;;3.03;;
62110;SDS011;48102;47.526;19.072;2022-12-07T16:19:43;4.15;;;2.42;;
62110;SDS011;48102;47.526;19.072;2022-12-07T16:22:46;3.03;;;2.10;;
62110;SDS011;48102;47.526;19.072;2022-12-07T16:25:49;1.98;;;1.80;;
62110;SDS011;48102;47.526;19.072;2022-12-07T16:28:52;3.42;;;2.17;;
62110;SDS011;48102;47.526;19.072;2022-12-07T16:31:55;3.12;;;2.60;;
